createdAt,value
2019-04-05T19:24:31.676Z,15.70
2019-04-05T19:29:36.550Z,15.50
2019-04-05T19:50:00.814Z,15.00
2019-04-05T19:55:05.955Z,15.00
2019-04-05T20:00:10.824Z,15.00
2019-04-05T20:05:17.093Z,15.00
2019-04-05T20:10:21.890Z,15.00
2019-04-05T20:15:26.730Z,14.90
2019-04-05T20:20:31.521Z,14.80
2019-04-05T20:25:36.486Z,14.70
2019-04-05T20:30:41.277Z,14.60
2019-04-05T20:35:46.141Z,14.70
2019-04-05T20:40:50.969Z,14.70
2019-04-05T20:45:56.838Z,14.70
2019-04-05T20:51:01.634Z,14.60
2019-04-05T20:56:06.472Z,14.50
2019-04-05T21:01:11.237Z,14.40
2019-04-05T21:06:17.248Z,14.30
2019-04-05T21:11:22.157Z,14.10
2019-04-05T21:16:26.882Z,13.90
2019-04-05T21:21:31.646Z,13.80
2019-04-05T21:26:36.429Z,13.50
2019-04-05T21:31:41.199Z,13.40
2019-04-05T21:36:45.972Z,13.20
2019-04-05T21:41:50.789Z,13.00
2019-04-05T21:46:55.553Z,13.00
2019-04-05T21:52:00.386Z,12.90
2019-04-05T21:57:05.240Z,12.70
2019-04-05T22:02:10.282Z,12.60
2019-04-05T22:07:15.170Z,12.50
2019-04-05T22:12:20.094Z,12.40
2019-04-05T22:17:24.893Z,12.40
2019-04-05T22:22:29.667Z,12.20
2019-04-05T22:27:34.433Z,12.10
2019-04-05T22:32:39.208Z,12.00
2019-04-05T22:37:43.974Z,11.90
2019-04-05T22:42:48.741Z,11.70
2019-04-05T22:47:53.470Z,11.60
2019-04-05T22:52:58.261Z,11.30
2019-04-05T22:58:03.074Z,11.10
2019-04-05T23:03:07.845Z,10.90
2019-04-05T23:08:12.634Z,10.80
2019-04-05T23:13:17.429Z,10.90
2019-04-05T23:18:22.222Z,10.80
2019-04-05T23:23:28.059Z,10.70
2019-04-05T23:28:32.837Z,10.60
2019-04-05T23:33:37.630Z,10.50
2019-04-05T23:38:42.422Z,10.50
2019-04-05T23:43:47.186Z,10.40
2019-04-05T23:48:51.909Z,10.30
2019-04-05T23:53:56.630Z,10.20
2019-04-05T23:59:01.422Z,10.10
